createdAt,value
2024-04-09T00:00:49.566Z,100368.31
2024-04-09T00:02:51.824Z,100369.75
2024-04-09T00:04:56.751Z,100361.63
2024-04-09T00:06:58.974Z,100360.38
2024-04-09T00:09:03.969Z,100346.16
2024-04-09T00:11:08.459Z,100342.34
2024-04-09T00:13:15.996Z,100322.88
2024-04-09T00:15:18.789Z,100328.84
2024-04-09T00:17:27.025Z,100314.50
2024-04-09T00:19:30.509Z,100307.31
2024-04-09T00:21:35.872Z,100289.50
2024-04-09T00:23:38.183Z,100289.22
2024-04-09T00:25:43.069Z,100286.34
2024-04-09T00:27:45.491Z,100295.78
2024-04-09T00:29:52.973Z,100300.78
2024-04-09T00:31:55.170Z,100293.63
2024-04-09T00:34:01.071Z,100299.56
2024-04-09T00:36:04.029Z,100300.28
2024-04-09T00:38:15.613Z,100300.28
2024-04-09T00:40:18.216Z,100296.69
2024-04-09T00:42:23.209Z,100298.38
2024-04-09T00:44:25.954Z,100294.78
2024-04-09T00:46:33.498Z,100288.69
2024-04-09T00:48:36.005Z,100293.13
2024-04-09T00:50:43.125Z,100291.44
2024-04-09T00:52:47.034Z,100294.31
2024-04-09T00:54:53.820Z,100297.19
2024-04-09T00:56:57.956Z,100296.50
2024-04-09T00:59:03.131Z,100294.00
2024-04-09T01:01:05.794Z,100292.44
2024-04-09T01:03:13.553Z,100291.03
2024-04-09T01:05:16.338Z,100294.59
2024-04-09T01:07:21.128Z,100300.16
2024-04-09T01:09:23.439Z,100294.19
2024-04-09T01:11:28.374Z,100299.56
2024-04-09T01:13:30.585Z,100298.72
2024-04-09T01:15:35.893Z,100298.84
2024-04-09T01:17:38.353Z,100291.91
2024-04-09T01:19:46.735Z,100301.59
2024-04-09T01:21:48.945Z,100299.81
2024-04-09T01:23:56.562Z,100302.31
2024-04-09T01:25:58.910Z,100303.28
2024-04-09T01:28:03.944Z,100304.94
2024-04-09T01:30:07.325Z,100316.41
2024-04-09T01:32:14.227Z,100309.47
2024-04-09T01:34:17.069Z,100311.41
2024-04-09T01:36:22.920Z,100308.78
2024-04-09T01:38:25.262Z,100304.34
2024-04-09T01:40:32.802Z,100293.00
2024-04-09T01:42:35.254Z,100287.63
2024-04-09T01:44:41.096Z,100283.91
2024-04-09T01:46:44.034Z,100284.63
2024-04-09T01:48:49.157Z,100259.19
2024-04-09T01:50:52.477Z,100241.50
2024-04-09T01:52:57.303Z,100249.25
2024-04-09T01:54:59.766Z,100238.44
2024-04-09T01:57:07.848Z,100251.34
2024-04-09T01:59:10.146Z,100252.06
2024-04-09T02:01:15.759Z,100254.44
2024-04-09T02:03:18.214Z,100252.50
2024-04-09T02:05:23.530Z,100250.47
2024-04-09T02:07:26.147Z,100244.13
2024-04-09T02:09:31.092Z,100253.41
2024-04-09T02:11:33.476Z,100257.47
2024-04-09T02:13:41.915Z,100258.00
2024-04-09T02:15:44.595Z,100266.34
2024-04-09T02:17:50.120Z,100260.00
2024-04-09T02:19:53.155Z,100263.94
2024-04-09T02:21:58.012Z,100269.75
2024-04-09T02:24:01.279Z,100281.69
2024-04-09T02:26:06.479Z,100277.81
2024-04-09T02:28:09.617Z,100281.16
2024-04-09T02:30:17.245Z,100263.44
2024-04-09T02:32:19.611Z,100264.97
2024-04-09T02:34:25.871Z,100267.50
2024-04-09T02:36:28.209Z,100264.59
2024-04-09T02:38:36.837Z,100258.50
2024-04-09T02:40:39.234Z,100260.16
2024-04-09T02:42:44.762Z,100240.91
2024-04-09T02:44:47.004Z,100240.22
2024-04-09T02:46:54.498Z,100240.47
2024-04-09T02:48:57.076Z,100242.41
2024-04-09T02:51:04.945Z,100254.00
2024-04-09T02:53:07.205Z,100259.41
2024-04-09T02:55:12.214Z,100261.06
2024-04-09T02:57:14.803Z,100256.50
2024-04-09T02:59:19.669Z,100261.78
2024-04-09T03:01:22.009Z,100259.84
2024-04-09T03:03:30.427Z,100257.22
2024-04-09T03:05:33.571Z,100247.41
2024-04-09T03:07:38.587Z,100251.56
2024-04-09T03:09:41.490Z,100244.38
2024-04-09T03:11:46.329Z,100241.63
2024-04-09T03:13:50.806Z,100246.66
2024-04-09T03:15:56.787Z,100232.28
2024-04-09T03:17:59.351Z,100245.19
2024-04-09T03:20:07.495Z,100236.97
2024-04-09T03:22:09.724Z,100229.78
2024-04-09T03:24:14.695Z,100225.38
2024-04-09T03:26:16.944Z,100225.94
2024-04-09T03:28:21.833Z,100225.94
2024-04-09T03:30:24.074Z,100224.00
2024-04-09T03:32:29.544Z,100215.13
2024-04-09T03:34:31.887Z,100213.22
2024-04-09T03:36:39.345Z,100219.19
2024-04-09T03:38:44.452Z,100216.41
2024-04-09T03:40:53.795Z,100211.00
2024-04-09T03:42:58.641Z,100212.69
2024-04-09T03:45:00.970Z,100216.84
2024-04-09T03:47:08.808Z,100220.19
2024-04-09T03:49:11.436Z,100208.53
2024-04-09T03:51:18.684Z,100210.19
2024-04-09T03:53:23.771Z,100211.03
2024-04-09T03:55:28.557Z,100214.34
2024-04-09T03:57:30.809Z,100209.09
2024-04-09T03:59:36.249Z,100211.59
2024-04-09T04:01:38.888Z,100206.31
2024-04-09T04:03:45.800Z,100201.06
2024-04-09T04:05:51.686Z,100197.44
2024-04-09T04:07:56.479Z,100188.59
2024-04-09T04:10:01.291Z,100188.59
2024-04-09T04:12:06.567Z,100185.00
2024-04-09T04:14:08.807Z,100182.22
2024-04-09T04:16:14.967Z,100186.53
2024-04-09T04:18:17.279Z,100187.50
2024-04-09T04:20:22.210Z,100180.41
2024-04-09T04:22:24.416Z,100179.44
2024-04-09T04:24:30.067Z,100169.88
2024-04-09T04:26:37.592Z,100174.19
2024-04-09T04:28:41.358Z,100179.44
2024-04-09T04:30:46.296Z,100167.25
2024-04-09T04:32:48.755Z,100166.41
2024-04-09T04:34:56.311Z,100162.00
2024-04-09T04:36:58.551Z,100165.59
2024-04-09T04:39:04.942Z,100165.59
2024-04-09T04:41:07.538Z,100168.22
2024-04-09T04:43:15.070Z,100176.13
2024-04-09T04:45:18.296Z,100163.66
2024-04-09T04:47:23.384Z,100160.88
2024-04-09T04:49:25.910Z,100148.41
2024-04-09T04:51:30.875Z,100145.66
2024-04-09T04:53:33.184Z,100134.84
2024-04-09T04:55:38.097Z,100112.53
2024-04-09T04:57:40.423Z,100087.69
2024-04-09T04:59:48.135Z,100096.84
2024-04-09T05:01:50.345Z,100094.63
2024-04-09T05:03:55.308Z,100098.66
2024-04-09T05:06:06.255Z,100106.13
2024-04-09T05:08:11.218Z,100091.84
2024-04-09T05:10:14.380Z,100096.53
2024-04-09T05:12:19.360Z,100106.78
2024-04-09T05:14:22.381Z,100095.16
2024-04-09T05:16:29.872Z,100105.41
2024-04-09T05:18:32.354Z,100112.06
2024-04-09T05:20:37.851Z,100107.34
2024-04-09T05:22:40.626Z,100103.47
2024-04-09T05:24:49.588Z,100098.56
2024-04-09T05:26:52.092Z,100100.09
2024-04-09T05:28:57.369Z,100099.53
2024-04-09T05:31:00.619Z,100094.81
2024-04-09T05:33:10.963Z,100097.88
2024-04-09T05:35:16.081Z,100096.63
2024-04-09T05:37:22.841Z,100101.56
2024-04-09T05:39:26.710Z,100100.31
2024-04-09T05:41:31.759Z,100100.72
2024-04-09T05:43:33.973Z,100096.00
2024-04-09T05:45:36.236Z,100095.56
2024-04-09T05:47:41.341Z,100099.56
2024-04-09T05:49:46.686Z,100092.72
2024-04-09T05:51:51.832Z,100107.13
2024-04-09T05:53:54.065Z,100102.09
2024-04-09T05:55:59.637Z,100103.19
2024-04-09T05:58:02.455Z,100095.63
2024-04-09T06:00:10.994Z,100094.22
2024-04-09T06:02:16.005Z,100108.66
2024-04-09T06:04:21.327Z,100110.84
2024-04-09T06:06:26.367Z,100107.75
2024-04-09T06:08:31.449Z,100104.66
2024-04-09T06:10:33.772Z,100106.03
2024-04-09T06:12:39.186Z,100115.31
2024-04-09T06:14:41.417Z,100116.53
2024-04-09T06:16:46.300Z,100109.00
2024-04-09T06:18:49.314Z,100117.00
2024-04-09T06:20:54.254Z,100112.09
2024-04-09T06:22:59.046Z,100112.50
2024-04-09T06:25:04.600Z,100112.88
2024-04-09T06:27:08.288Z,100109.09
2024-04-09T06:29:13.175Z,100123.81
2024-04-09T06:31:15.552Z,100144.66
2024-04-09T06:33:20.621Z,100147.97
2024-04-09T06:35:23.502Z,100228.91
2024-04-09T06:37:28.318Z,100226.94
2024-04-09T06:39:34.316Z,100211.09
2024-04-09T06:41:39.223Z,100239.19
2024-04-09T06:43:41.478Z,100233.75
2024-04-09T06:45:46.789Z,100246.97
2024-04-09T06:47:49.111Z,100248.78
2024-04-09T06:49:54.067Z,100255.88
2024-04-09T06:51:56.293Z,100262.81
2024-04-09T06:54:01.385Z,100253.06
2024-04-09T06:56:06.710Z,100255.56
2024-04-09T06:58:11.853Z,100252.78
2024-04-09T07:00:15.860Z,100250.81
2024-04-09T07:02:20.782Z,100252.19
2024-04-09T07:04:23.579Z,100250.22
2024-04-09T07:06:28.687Z,100246.31
2024-04-09T07:08:30.914Z,100247.69
2024-04-09T07:10:35.743Z,100240.41
2024-04-09T07:12:40.700Z,100237.31
2024-04-09T07:14:45.601Z,100243.97
2024-04-09T07:16:48.115Z,100225.00
2024-04-09T07:18:53.271Z,100239.28
2024-04-09T07:20:55.504Z,100234.34
2024-04-09T07:23:00.583Z,100233.75
2024-04-09T07:25:02.860Z,100228.81
2024-04-09T07:27:08.228Z,100227.53
2024-04-09T07:29:14.565Z,100226.25
2024-04-09T07:31:20.186Z,100215.22
2024-04-09T07:33:22.517Z,100224.34
2024-04-09T07:35:27.459Z,100226.38
2024-04-09T07:37:29.665Z,100239.00
2024-04-09T07:39:34.524Z,100261.53
2024-04-09T07:41:36.727Z,100245.34
2024-04-09T07:43:41.612Z,100268.19
2024-04-09T07:45:52.688Z,100266.53
2024-04-09T07:47:57.656Z,100270.47
2024-04-09T07:49:59.916Z,100258.22
2024-04-09T07:52:05.054Z,100254.06
2024-04-09T07:54:08.032Z,100255.19
2024-04-09T07:56:14.154Z,100271.06
2024-04-09T07:58:16.483Z,100264.78
2024-04-09T08:00:22.583Z,100261.16
2024-04-09T08:02:27.581Z,100247.78
2024-04-09T08:04:33.702Z,100263.50
2024-04-09T08:06:36.451Z,100259.88
2024-04-09T08:08:43.397Z,100256.25
2024-04-09T08:10:49.344Z,100241.34
2024-04-09T08:12:55.920Z,100240.50
2024-04-09T08:14:58.386Z,100237.03
2024-04-09T08:17:03.221Z,100240.66
2024-04-09T08:19:08.233Z,100246.94
2024-04-09T08:21:13.305Z,100239.00
2024-04-09T08:23:15.602Z,100239.00
2024-04-09T08:25:20.923Z,100247.63
2024-04-09T08:27:23.228Z,100252.91
2024-04-09T08:29:33.123Z,100255.56
2024-04-09T08:31:35.385Z,100254.88
2024-04-09T08:33:40.416Z,100257.69
2024-04-09T08:35:49.523Z,100258.97
2024-04-09T08:37:54.391Z,100267.38
2024-04-09T08:39:57.809Z,100281.72
2024-04-09T08:42:03.220Z,100289.81
2024-04-09T08:44:09.414Z,100298.59
2024-04-09T08:46:15.061Z,100298.13
2024-04-09T08:48:19.176Z,100298.38
2024-04-09T08:50:24.553Z,100298.44
2024-04-09T08:52:30.573Z,100300.28
2024-04-09T08:54:36.152Z,100296.03
2024-04-09T08:56:38.317Z,100283.84
2024-04-09T08:58:44.906Z,100291.81
2024-04-09T09:00:47.754Z,100287.25
2024-04-09T09:02:54.176Z,100294.13
2024-04-09T09:04:56.530Z,100291.03
2024-04-09T09:07:01.404Z,100277.16
2024-04-09T09:09:06.310Z,100278.50
2024-04-09T09:11:11.470Z,100291.00
2024-04-09T09:13:13.797Z,100305.72
2024-04-09T09:15:24.673Z,100295.47
2024-04-09T09:17:27.360Z,100315.00
2024-04-09T09:19:33.334Z,100343.16
2024-04-09T09:21:35.756Z,100356.06
2024-04-09T09:23:40.626Z,100360.38
2024-04-09T09:25:46.170Z,100373.69
2024-04-09T09:27:51.730Z,100386.84
2024-04-09T09:29:55.502Z,100380.72
2024-04-09T09:32:03.195Z,100379.44
2024-04-09T09:34:08.731Z,100365.56
2024-04-09T09:36:16.078Z,100377.69
2024-04-09T09:38:18.439Z,100379.03
2024-04-09T09:40:24.044Z,100374.38
2024-04-09T09:42:29.831Z,100372.69
2024-04-09T09:44:39.605Z,100378.13
2024-04-09T09:46:46.118Z,100388.72
2024-04-09T09:48:54.587Z,100399.94
2024-04-09T09:50:58.238Z,100446.00
2024-04-09T09:53:04.096Z,100454.66
2024-04-09T09:55:10.202Z,100443.22
2024-04-09T09:57:21.163Z,100437.72
2024-04-09T09:59:29.904Z,100458.06
2024-04-09T10:01:38.069Z,100448.53
2024-04-09T10:03:40.957Z,100437.19
2024-04-09T10:05:46.402Z,100430.84
2024-04-09T10:07:49.590Z,100461.59
2024-04-09T10:09:57.072Z,100473.13
2024-04-09T10:11:59.452Z,100489.63
2024-04-09T10:14:06.250Z,100479.78
2024-04-09T10:16:17.539Z,100471.91
2024-04-09T10:18:32.539Z,100440.38
2024-04-09T10:20:37.495Z,100461.47
2024-04-09T10:22:42.452Z,100498.16
2024-04-09T10:24:44.884Z,100512.38
2024-04-09T10:27:22.557Z,100501.97
2024-04-09T10:29:25.833Z,100475.78
2024-04-09T10:31:33.433Z,100472.91
2024-04-09T10:33:37.398Z,100480.75
2024-04-09T10:35:43.107Z,100500.97
2024-04-09T10:37:47.913Z,100505.31
2024-04-09T10:39:50.395Z,100519.13
2024-04-09T10:41:57.662Z,100515.25
2024-04-09T10:43:59.805Z,100498.00
2024-04-09T10:46:11.655Z,100486.59
2024-04-09T10:48:19.810Z,100479.06
2024-04-09T10:50:25.715Z,100481.50
2024-04-09T10:52:27.936Z,100501.38
2024-04-09T10:54:33.651Z,100494.91
2024-04-09T10:56:36.586Z,100481.28
2024-04-09T10:58:42.285Z,100471.16
2024-04-09T11:00:45.402Z,100491.97
2024-04-09T11:02:51.085Z,100506.13
2024-04-09T11:05:00.999Z,100516.41
2024-04-09T11:07:10.560Z,100516.72
2024-04-09T11:09:13.455Z,100525.25
2024-04-09T11:11:20.600Z,100521.88
2024-04-09T11:13:23.524Z,100511.34
2024-04-09T11:15:28.464Z,100516.69
2024-04-09T11:17:30.980Z,100519.25
2024-04-09T11:19:39.639Z,100544.91
2024-04-09T11:21:45.182Z,100554.66
2024-04-09T11:23:51.554Z,100547.69
2024-04-09T11:25:56.570Z,100548.66
2024-04-09T11:28:07.416Z,100554.25
2024-04-09T11:30:11.390Z,100551.91
2024-04-09T11:32:17.170Z,100557.47
2024-04-09T11:34:27.908Z,100542.72
2024-04-09T11:36:33.392Z,100540.53
2024-04-09T11:38:38.635Z,100548.91
2024-04-09T11:40:43.928Z,100558.25
2024-04-09T11:42:46.193Z,100552.56
2024-04-09T11:45:02.999Z,100556.47
2024-04-09T11:47:06.876Z,100542.53
2024-04-09T11:49:12.207Z,100506.63
2024-04-09T11:51:14.974Z,100501.88
2024-04-09T11:53:23.641Z,100514.38
2024-04-09T11:55:29.150Z,100521.31
2024-04-09T11:57:34.548Z,100526.84
2024-04-09T11:59:40.622Z,100540.63
2024-04-09T12:01:47.090Z,100542.28
2024-04-09T12:03:49.467Z,100540.63
2024-04-09T12:05:54.915Z,100541.59
2024-04-09T12:07:57.387Z,100549.16
2024-04-09T12:10:02.737Z,100565.47
2024-04-09T12:12:10.421Z,100573.13
2024-04-09T12:14:15.681Z,100572.03
2024-04-09T12:16:17.932Z,100576.25
2024-04-09T12:18:23.159Z,100577.69
2024-04-09T12:20:25.587Z,100582.69
2024-04-09T12:22:30.680Z,100588.69
2024-04-09T12:24:33.259Z,100589.41
2024-04-09T12:26:38.891Z,100599.88
2024-04-09T12:28:43.746Z,100596.13
2024-04-09T12:30:48.788Z,100610.88
2024-04-09T12:32:52.394Z,100611.44
2024-04-09T12:34:58.054Z,100614.50
2024-04-09T12:37:00.340Z,100614.22
2024-04-09T12:39:05.944Z,100620.31
2024-04-09T12:41:08.256Z,100636.28
2024-04-09T12:43:13.229Z,100638.34
2024-04-09T12:45:18.156Z,100645.69
2024-04-09T12:47:23.413Z,100638.16
2024-04-09T12:49:35.255Z,100638.53
2024-04-09T12:51:48.288Z,100636.13
2024-04-09T12:53:50.590Z,100640.41
2024-04-09T12:55:55.396Z,100635.91
2024-04-09T12:57:57.626Z,100645.31
2024-04-09T13:00:22.428Z,100645.84
2024-04-09T13:02:29.704Z,100649.84
2024-04-09T13:04:35.412Z,100656.47
2024-04-09T13:06:37.891Z,100660.28
2024-04-09T13:08:42.781Z,100662.34
2024-04-09T13:10:45.818Z,100669.69
2024-04-09T13:12:51.003Z,100677.88
2024-04-09T13:17:04.339Z,100683.66
2024-04-09T13:19:11.309Z,100697.22
2024-04-09T13:21:16.168Z,100703.81
2024-04-09T13:23:18.447Z,100709.59
2024-04-09T13:25:25.802Z,100719.94
2024-04-09T13:27:28.018Z,100743.69
2024-04-09T13:29:34.072Z,100735.34
2024-04-09T13:31:36.525Z,100728.22
2024-04-09T13:33:41.517Z,100744.72
2024-04-09T13:35:46.431Z,100755.00
2024-04-09T13:37:51.265Z,100766.94
2024-04-09T13:39:53.437Z,100766.53
2024-04-09T13:41:58.629Z,100773.81
2024-04-09T13:44:01.073Z,100777.59
2024-04-09T13:46:06.106Z,100783.75
2024-04-09T13:48:08.589Z,100781.41
2024-04-09T13:50:18.046Z,100787.66
2024-04-09T13:52:23.772Z,100812.41
2024-04-09T13:54:25.946Z,100800.22
2024-04-09T13:56:32.472Z,100799.22
2024-04-09T13:58:34.740Z,100797.34
2024-04-09T14:00:41.598Z,100801.34
2024-04-09T14:02:44.909Z,100796.75
2024-04-09T14:04:50.172Z,100792.03
2024-04-09T14:06:52.864Z,100800.19
2024-04-09T14:09:00.367Z,100789.19
2024-04-09T14:11:02.888Z,100794.63
2024-04-09T14:13:07.814Z,100793.19
2024-04-09T14:15:11.173Z,100788.16
2024-04-09T14:17:16.158Z,100791.94
2024-04-09T14:19:21.084Z,100783.31
2024-04-09T14:21:27.707Z,100785.22
2024-04-09T14:23:30.070Z,100783.53
2024-04-09T14:25:37.517Z,100779.97
2024-04-09T14:27:39.834Z,100778.28
2024-04-09T14:29:46.342Z,100770.41
2024-04-09T14:31:48.546Z,100758.97
2024-04-09T14:33:53.591Z,100762.34
2024-04-09T14:35:55.854Z,100770.94
2024-04-09T14:38:00.767Z,100759.19
2024-04-09T14:40:03.555Z,100768.41
2024-04-09T14:42:14.396Z,100767.97
2024-04-09T14:44:16.798Z,100769.25
2024-04-09T14:46:20.363Z,100767.16
2024-04-09T14:48:25.505Z,100763.38
2024-04-09T14:50:27.790Z,100770.03
2024-04-09T14:52:34.108Z,100762.81
2024-04-09T14:54:36.324Z,100761.63
2024-04-09T14:56:41.431Z,100763.00
2024-04-09T14:58:46.289Z,100776.75
2024-04-09T15:00:54.903Z,100776.44
2024-04-09T15:02:57.737Z,100768.34
2024-04-09T15:05:02.633Z,100770.81
2024-04-09T15:07:05.434Z,100778.59
2024-04-09T15:09:11.560Z,100776.69
2024-04-09T15:11:18.717Z,100788.03
2024-04-09T15:13:24.241Z,100796.75
2024-04-09T15:15:29.176Z,100795.81
2024-04-09T15:17:34.074Z,100797.53
2024-04-09T15:19:36.433Z,100792.28
2024-04-09T15:21:41.266Z,100793.13
2024-04-09T15:23:45.536Z,100786.06
2024-04-09T15:25:53.251Z,100785.13
2024-04-09T15:27:57.899Z,100795.63
2024-04-09T15:30:05.133Z,100801.81
2024-04-09T15:32:14.123Z,100812.34
2024-04-09T15:34:19.368Z,100821.88
2024-04-09T15:36:22.124Z,100828.09
2024-04-09T15:38:29.499Z,100825.47
2024-04-09T15:40:33.406Z,100827.25
2024-04-09T15:42:38.229Z,100830.06
2024-04-09T15:44:40.880Z,100834.47
2024-04-09T15:46:46.351Z,100823.13
2024-04-09T15:48:51.280Z,100822.28
2024-04-09T15:50:56.576Z,100825.66
2024-04-09T15:52:59.001Z,100832.56
2024-04-09T15:55:01.624Z,100836.16
2024-04-09T15:57:06.930Z,100832.69
2024-04-09T15:59:09.380Z,100826.59
2024-04-09T16:01:14.746Z,100829.94
2024-04-09T16:03:17.240Z,100835.97
2024-04-09T16:05:24.854Z,100843.72
2024-04-09T16:07:27.611Z,100837.44
2024-04-09T16:09:32.523Z,100839.13
2024-04-09T16:11:36.016Z,100841.75
2024-04-09T16:13:44.201Z,100836.38
2024-04-09T16:15:46.967Z,100835.53
2024-04-09T16:17:52.118Z,100850.34
2024-04-09T16:19:54.468Z,100846.88
2024-04-09T16:22:02.147Z,100848.47
2024-04-09T16:24:05.105Z,100851.09
2024-04-09T16:26:11.886Z,100863.28
2024-04-09T16:28:14.276Z,100863.28
2024-04-09T16:30:21.039Z,100858.00
2024-04-09T16:32:23.552Z,100870.19
2024-04-09T16:34:28.624Z,100870.19
2024-04-09T16:36:31.800Z,100864.09
2024-04-09T16:38:41.277Z,100865.06
2024-04-09T16:40:43.804Z,100866.94
2024-04-09T16:42:48.792Z,100872.31
2024-04-09T16:44:51.035Z,100875.88
2024-04-09T16:46:56.108Z,100876.81
2024-04-09T16:48:58.607Z,100876.94
2024-04-09T16:51:03.915Z,100892.69
2024-04-09T16:53:06.094Z,100894.38
2024-04-09T16:55:14.065Z,100901.28
2024-04-09T16:57:17.020Z,100904.75
2024-04-09T16:59:22.369Z,100904.75
2024-04-09T17:01:25.011Z,100913.47
2024-04-09T17:03:30.235Z,100900.34
2024-04-09T17:05:33.065Z,100899.41
2024-04-09T17:07:37.976Z,100905.50
2024-04-09T17:09:43.071Z,100903.81
2024-04-09T17:11:51.631Z,100917.91
2024-04-09T17:13:54.035Z,100906.44
2024-04-09T17:15:59.038Z,100908.22
2024-04-09T17:18:01.352Z,100913.47
2024-04-09T17:20:09.738Z,100914.31
2024-04-09T17:22:11.960Z,100910.84
2024-04-09T17:24:16.836Z,100908.22
2024-04-09T17:26:19.100Z,100907.41
2024-04-09T17:28:26.621Z,100918.75
2024-04-09T17:30:28.847Z,100912.66
2024-04-09T17:32:34.745Z,100918.00
2024-04-09T17:34:37.211Z,100919.69
2024-04-09T17:36:42.150Z,100922.41
2024-04-09T17:38:44.480Z,100928.63
2024-04-09T17:40:49.581Z,100931.13
2024-04-09T17:42:51.982Z,100937.22
2024-04-09T17:44:56.828Z,100931.13
2024-04-09T17:47:02.511Z,100929.44
2024-04-09T17:49:06.380Z,100935.53
2024-04-09T17:51:11.604Z,100932.19
2024-04-09T17:53:13.804Z,100940.06
2024-04-09T17:55:23.399Z,100937.44
2024-04-09T17:57:25.902Z,100948.13
2024-04-09T17:59:30.788Z,100950.84
2024-04-09T18:01:39.527Z,100953.56
2024-04-09T18:03:45.450Z,100947.59
2024-04-09T18:05:48.337Z,100949.59
2024-04-09T18:07:53.744Z,100954.00
2024-04-09T18:09:55.922Z,100961.06
2024-04-09T18:12:01.094Z,100960.22
2024-04-09T18:14:03.620Z,100957.78
2024-04-09T18:16:09.103Z,100961.16
2024-04-09T18:18:14.099Z,100965.66
2024-04-09T18:20:19.341Z,100968.41
2024-04-09T18:22:22.735Z,100975.44
2024-04-09T18:24:27.597Z,100977.31
2024-04-09T18:26:30.093Z,100979.19
2024-04-09T18:28:35.200Z,100981.09
2024-04-09T18:30:37.460Z,100989.91
2024-04-09T18:32:42.745Z,100986.53
2024-04-09T18:34:48.585Z,100988.41
2024-04-09T18:36:54.979Z,100990.31
2024-04-09T18:38:59.263Z,100984.31
2024-04-09T18:41:04.950Z,100980.97
2024-04-09T18:43:08.369Z,100982.03
2024-04-09T18:45:14.610Z,100993.47
2024-04-09T18:47:17.057Z,100990.94
2024-04-09T18:49:23.001Z,100997.13
2024-04-09T18:51:28.244Z,101003.31
2024-04-09T18:53:34.430Z,100998.06
2024-04-09T18:55:38.564Z,101000.69
2024-04-09T18:57:40.875Z,101003.31
2024-04-09T18:59:46.150Z,101008.56
2024-04-09T19:01:48.487Z,101011.19
2024-04-09T19:03:53.739Z,101017.38
2024-04-09T19:05:56.448Z,101009.50
2024-04-09T19:08:05.074Z,101017.38
2024-04-09T19:10:08.447Z,101012.13
2024-04-09T19:12:14.437Z,101019.28
2024-04-09T19:14:17.877Z,101017.59
2024-04-09T19:16:23.142Z,101021.16
2024-04-09T19:18:25.891Z,101024.72
2024-04-09T19:20:31.472Z,101026.59
2024-04-09T19:22:34.420Z,101019.66
2024-04-09T19:24:42.277Z,101028.47
2024-04-09T19:26:44.506Z,101030.34
2024-04-09T19:28:50.453Z,101035.59
2024-04-09T19:30:52.811Z,101035.59
2024-04-09T19:33:00.747Z,101030.34
2024-04-09T19:35:03.485Z,101035.59
2024-04-09T19:37:09.726Z,101032.03
2024-04-09T19:39:15.211Z,101040.66
2024-04-09T19:41:23.001Z,101034.38
2024-04-09T19:43:34.249Z,101029.97
2024-04-09T19:45:54.342Z,101035.22
2024-04-09T19:47:56.766Z,101039.41
2024-04-09T19:49:59.968Z,101035.00
2024-04-09T19:52:06.712Z,101032.28
2024-04-09T19:54:11.480Z,101036.50
2024-04-09T19:56:16.808Z,101032.94
2024-04-09T19:58:23.270Z,101044.19
2024-04-09T20:00:28.564Z,101045.03
2024-04-09T20:02:37.887Z,101047.63
2024-04-09T20:04:43.217Z,101046.81
2024-04-09T20:06:47.348Z,101042.41
2024-04-09T20:08:53.411Z,101045.84
2024-04-09T20:10:57.642Z,101050.16
2024-04-09T20:13:04.206Z,101046.59
2024-04-09T20:15:10.036Z,101048.25
2024-04-09T20:17:15.737Z,101051.63
2024-04-09T20:19:18.167Z,101056.88
2024-04-09T20:21:24.648Z,101055.94
2024-04-09T20:23:26.935Z,101059.50
2024-04-09T20:25:32.283Z,101049.94
2024-04-09T20:27:34.520Z,101045.63
2024-04-09T20:29:40.493Z,101053.50
2024-04-09T20:31:47.784Z,101064.84
2024-04-09T20:33:52.668Z,101064.00
2024-04-09T20:35:56.407Z,101057.91
2024-04-09T20:38:01.241Z,101058.75
2024-04-09T20:40:05.447Z,101058.75
2024-04-09T20:42:11.838Z,101069.38
2024-04-09T20:44:14.050Z,101073.78
2024-04-09T20:46:20.007Z,101061.69
2024-04-09T20:48:25.158Z,101076.59
2024-04-09T20:50:31.405Z,101082.78
2024-04-09T20:52:33.722Z,101078.50
2024-04-09T20:54:39.464Z,101101.16
2024-04-09T20:56:42.485Z,101104.72
2024-04-09T20:58:47.938Z,101098.63
2024-04-09T21:00:50.369Z,101098.75
2024-04-09T21:02:57.233Z,101102.31
2024-04-09T21:05:03.542Z,101106.81
2024-04-09T21:07:08.705Z,101108.69
2024-04-09T21:09:11.345Z,101111.50
2024-04-09T21:11:16.392Z,101120.31
2024-04-09T21:13:19.393Z,101124.81
2024-04-09T21:15:24.822Z,101128.56
2024-04-09T21:17:27.803Z,101116.63
2024-04-09T21:19:32.926Z,101123.84
2024-04-09T21:21:37.732Z,101123.28
2024-04-09T21:23:42.760Z,101138.34
2024-04-09T21:25:45.505Z,101130.69
2024-04-09T21:27:50.288Z,101145.84
2024-04-09T21:29:52.971Z,101149.63
2024-04-09T21:31:57.755Z,101148.13
2024-04-09T21:33:59.995Z,101150.94
2024-04-09T21:36:04.931Z,101157.31
2024-04-09T21:38:09.835Z,101167.97
2024-04-09T21:40:15.006Z,101154.31
2024-04-09T21:42:17.175Z,101151.88
2024-04-09T21:44:22.028Z,101156.56
2024-04-09T21:46:26.501Z,101156.75
2024-04-09T21:48:31.696Z,101155.25
2024-04-09T21:50:34.195Z,101159.00
2024-04-09T21:52:39.277Z,101150.38
2024-04-09T21:54:44.113Z,101148.88
2024-04-09T21:56:49.038Z,101142.13
2024-04-09T21:58:51.250Z,101152.81
2024-04-09T22:00:56.670Z,101156.56
2024-04-09T22:02:59.047Z,101156.72
2024-04-09T22:05:04.279Z,101163.06
2024-04-09T22:07:06.491Z,101165.03
2024-04-09T22:09:11.263Z,101157.34
2024-04-09T22:11:16.269Z,101156.66
2024-04-09T22:13:21.248Z,101155.16
2024-04-09T22:15:24.333Z,101153.56
2024-04-09T22:17:29.334Z,101165.06
2024-04-09T22:19:35.490Z,101168.63
2024-04-09T22:21:40.303Z,101187.88
2024-04-09T22:23:42.431Z,101180.13
2024-04-09T22:25:47.499Z,101184.50
2024-04-09T22:27:52.341Z,101196.75
2024-04-09T22:29:57.495Z,101196.84
2024-04-09T22:31:59.726Z,101197.78
2024-04-09T22:34:05.783Z,101213.41
2024-04-09T22:36:08.674Z,101210.69
2024-04-09T22:38:17.486Z,101207.16
2024-04-09T22:40:20.150Z,101212.22
2024-04-09T22:42:25.878Z,101212.03
2024-04-09T22:44:31.028Z,101215.38
2024-04-09T22:46:36.212Z,101215.22
2024-04-09T22:48:39.086Z,101206.44
2024-04-09T22:50:47.295Z,101220.31
2024-04-09T22:52:49.996Z,101220.31
2024-04-09T22:54:55.535Z,101229.09
2024-04-09T22:56:57.936Z,101222.13
2024-04-09T22:59:03.184Z,101231.94
2024-04-09T23:01:08.864Z,101226.91
2024-04-09T23:03:14.257Z,101229.63
2024-04-09T23:05:16.959Z,101224.56
2024-04-09T23:07:22.719Z,101234.19
2024-04-09T23:09:27.986Z,101229.97
2024-04-09T23:11:33.127Z,101242.28
2024-04-09T23:13:36.473Z,101225.91
2024-04-09T23:15:41.590Z,101225.25
2024-04-09T23:17:46.648Z,101241.13
2024-04-09T23:19:51.617Z,101236.06
2024-04-09T23:21:54.058Z,101241.41
2024-04-09T23:23:58.843Z,101245.88
2024-04-09T23:26:01.331Z,101243.44
2024-04-09T23:28:06.541Z,101247.06
2024-04-09T23:30:09.757Z,101248.91
2024-04-09T23:32:13.255Z,101250.84
2024-04-09T23:34:21.914Z,101259.72
2024-04-09T23:36:24.395Z,101251.09
2024-04-09T23:38:30.044Z,101253.91
2024-04-09T23:40:37.898Z,101248.81
2024-04-09T23:42:45.341Z,101258.56
2024-04-09T23:44:47.910Z,101267.44
2024-04-09T23:46:54.440Z,101250.97